French Lick, Indiana
Current Conditions -  °F | °C
As of 12:35 PM on Friday 31 Oct 2014 (Local Time) from KHNB Reporting Station
Broken Clouds Broken Clouds  
Wind Chill:   Ceiling: 2500
Heat Index:   Visibility: 10mi
Dew Point:   Wind: 13mph
Humidity: 76%   Direction: 10°N
Pressure: 30.07"   Gusts: 21mph
Location:  38.55°N, 86.62°W
Report Text: KHNB 311635Z AUTO 01011G18KT 10SM FEW014 SCT019 BKN025 06/02 A3007 RMK AO1
Loading
Personal Weather Stations






























Interactive Weather Map
Tropical Storm Tracking
New forecast layout! Learn more

10-Day Weather Forecast

Advertisements
Track Severe Weather on mobile